Time;durP1;ratioP1;P1;durP2;ratioP2;P2;SDS_P1;SDS_P2;PMS_P1;PMS_P2;Temp;Humidity;BMP_temperature;BMP_pressure;BME280_temperature;BME280_humidity;BME280_pressure;Samples;Min_cycle;Max_cycle;Signal;HPM_P1;HPM_P2
2023/06/07 00:01:05;;;;;;;13.38;4.68;;;11.30;99.90;;;;;;5074156;28;20079;-55
2023/06/07 00:03:32;;;;;;;11.25;4.07;;;11.40;99.90;;;;;;5076802;28;20098;-55
2023/06/07 00:06:00;;;;;;;9.32;3.80;;;11.30;99.90;;;;;;5058599;28;20134;-57
2023/06/07 00:08:28;;;;;;;10.70;4.15;;;11.30;99.90;;;;;;5058595;28;20044;-57
2023/06/07 00:10:55;;;;;;;11.25;3.72;;;11.30;99.90;;;;;;5061233;28;20032;-57
2023/06/07 00:13:20;;;;;;;7.10;3.75;;;11.20;99.90;;;;;;5068785;28;20047;-56
2023/06/07 00:15:46;;;;;;;9.50;3.83;;;11.20;99.90;;;;;;5065058;28;20037;-56
2023/06/07 00:18:12;;;;;;;9.25;4.28;;;11.20;99.90;;;;;;5078019;28;20104;-57
2023/06/07 00:20:38;;;;;;;10.68;3.58;;;11.30;99.90;;;;;;5072107;28;20550;-57
2023/06/07 00:23:05;;;;;;;10.23;4.35;;;11.20;99.90;;;;;;5057706;28;20037;-55
2023/06/07 00:25:30;;;;;;;11.15;4.28;;;11.20;99.90;;;;;;5058505;28;20480;-56
2023/06/07 00:27:56;;;;;;;7.68;4.13;;;11.20;99.90;;;;;;5064148;28;20064;-55
2023/06/07 00:30:22;;;;;;;10.48;4.43;;;11.20;99.90;;;;;;5067981;28;20045;-55
2023/06/07 00:32:48;;;;;;;12.32;4.35;;;11.10;99.90;;;;;;5061949;28;20037;-54
2023/06/07 00:35:14;;;;;;;9.38;4.78;;;11.10;99.90;;;;;;5075676;28;20055;-56
2023/06/07 00:37:41;;;;;;;12.30;4.15;;;11.10;99.90;;;;;;5070344;28;20037;-55
2023/06/07 00:40:07;;;;;;;9.63;4.47;;;11.10;99.90;;;;;;5061106;28;20484;-55
2023/06/07 00:42:33;;;;;;;7.05;3.97;;;11.20;99.90;;;;;;5062501;28;20563;-56
2023/06/07 00:44:59;;;;;;;8.70;4.40;;;11.20;99.90;;;;;;5060977;28;20406;-55
2023/06/07 00:47:26;;;;;;;8.80;3.85;;;11.20;99.90;;;;;;5071240;28;20047;-56
2023/06/07 00:49:52;;;;;;;9.50;3.90;;;11.20;99.90;;;;;;5079848;28;20036;-55
2023/06/07 00:52:19;;;;;;;9.60;3.83;;;11.20;99.90;;;;;;5061750;28;20068;-55
2023/06/07 00:54:45;;;;;;;8.48;4.75;;;11.30;99.90;;;;;;5070872;28;20389;-55
2023/06/07 00:57:11;;;;;;;8.20;4.03;;;11.20;99.90;;;;;;5063682;28;20045;-55
2023/06/07 00:59:37;;;;;;;10.25;5.10;;;11.20;99.90;;;;;;5064893;28;20092;-56
2023/06/07 01:02:04;;;;;;;9.45;4.30;;;11.20;99.90;;;;;;5071133;28;20037;-55
2023/06/07 01:04:30;;;;;;;9.05;4.45;;;11.20;99.90;;;;;;5061883;28;20049;-55
2023/06/07 01:06:57;;;;;;;7.55;3.88;;;11.30;99.90;;;;;;5061940;28;20098;-56
2023/06/07 01:09:24;;;;;;;11.73;4.28;;;11.20;99.90;;;;;;5060912;28;20108;-55
2023/06/07 01:11:52;;;;;;;8.95;4.38;;;11.10;99.90;;;;;;5065369;28;20041;-55
2023/06/07 01:14:20;;;;;;;7.88;4.30;;;11.10;99.90;;;;;;5080496;28;20043;-55
2023/06/07 01:16:50;;;;;;;9.07;4.18;;;11.10;99.90;;;;;;5077137;28;20044;-55
2023/06/07 01:19:25;;;;;;;7.28;4.13;;;11.10;99.90;;;;;;5060760;28;20143;-55
2023/06/07 01:21:59;;;;;;;10.73;4.20;;;11.10;99.90;;;;;;5061312;28;20071;-54
2023/06/07 01:24:26;;;;;;;9.40;3.78;;;11.10;99.90;;;;;;5060235;28;20315;-55
2023/06/07 01:26:53;;;;;;;10.50;4.70;;;11.10;99.90;;;;;;5060639;28;20076;-56
2023/06/07 01:29:21;;;;;;;8.05;4.10;;;11.00;99.90;;;;;;5059066;28;20045;-55
2023/06/07 01:31:49;;;;;;;8.90;4.50;;;11.00;99.90;;;;;;5073153;28;20123;-56
2023/06/07 01:34:15;;;;;;;7.95;4.40;;;11.00;99.90;;;;;;5080579;28;20097;-56
2023/06/07 01:36:42;;;;;;;8.45;4.47;;;11.00;99.90;;;;;;5080212;28;20044;-55
2023/06/07 01:39:09;;;;;;;8.32;4.28;;;11.00;99.90;;;;;;5064631;28;20053;-55
2023/06/07 01:41:36;;;;;;;10.13;4.55;;;10.80;99.90;;;;;;5071096;28;20449;-55
2023/06/07 01:44:02;;;;;;;9.73;4.72;;;10.80;99.90;;;;;;5079686;28;20055;-56
2023/06/07 01:46:29;;;;;;;13.25;4.43;;;10.80;99.90;;;;;;5079187;28;20052;-55
2023/06/07 01:48:55;;;;;;;10.50;5.00;;;10.80;99.90;;;;;;5063517;28;20532;-56
2023/06/07 01:51:20;;;;;;;11.43;4.93;;;10.70;99.90;;;;;;5068975;28;20040;-55
2023/06/07 01:53:49;;;;;;;9.55;5.30;;;10.70;99.90;;;;;;5077685;28;20040;-55
2023/06/07 01:56:32;;;;;;;11.93;5.10;;;10.60;99.90;;;;;;5077219;28;20052;-56
2023/06/07 01:59:08;;;;;;;13.73;5.70;;;10.60;99.90;;;;;;5069091;28;20155;-56
2023/06/07 02:01:54;;;;;;;12.13;5.68;;;10.50;99.90;;;;;;5059101;28;20041;-55
2023/06/07 02:04:25;;;;;;;10.75;5.47;;;10.40;99.90;;;;;;5062179;28;20194;-55
2023/06/07 02:06:54;;;;;;;9.63;5.25;;;10.30;99.90;;;;;;5066612;28;20041;-58
2023/06/07 02:09:23;;;;;;;12.10;5.20;;;10.20;99.90;;;;;;5076000;28;20045;-56
2023/06/07 02:11:50;;;;;;;11.00;5.35;;;10.20;99.90;;;;;;5073750;28;20071;-56
2023/06/07 02:14:17;;;;;;;11.13;5.60;;;10.20;99.90;;;;;;5059153;28;20100;-56
2023/06/07 02:16:43;;;;;;;11.88;6.00;;;10.10;99.90;;;;;;5076335;28;20123;-55
2023/06/07 02:19:09;;;;;;;8.73;5.35;;;10.10;99.90;;;;;;5070915;28;20048;-56
2023/06/07 02:21:38;;;;;;;12.15;5.57;;;10.10;99.90;;;;;;5072712;28;20037;-56
2023/06/07 02:24:07;;;;;;;10.60;5.60;;;10.00;99.90;;;;;;5077050;28;20054;-56
2023/06/07 02:26:33;;;;;;;10.43;6.40;;;10.10;99.90;;;;;;5079115;28;20074;-55
2023/06/07 02:28:59;;;;;;;11.15;5.75;;;10.00;99.90;;;;;;5073911;28;20045;-55
2023/06/07 02:31:26;;;;;;;11.57;6.22;;;10.00;99.90;;;;;;5075021;28;20143;-56
2023/06/07 02:33:52;;;;;;;11.98;5.78;;;9.90;99.90;;;;;;5079277;28;20036;-56
2023/06/07 02:36:21;;;;;;;10.60;5.95;;;9.90;99.90;;;;;;5063612;28;20072;-56
2023/06/07 02:38:47;;;;;;;12.45;6.40;;;9.90;99.90;;;;;;5069080;28;20071;-56
2023/06/07 02:41:13;;;;;;;11.10;6.30;;;9.90;99.90;;;;;;5079532;28;20048;-56
2023/06/07 02:43:39;;;;;;;12.32;6.60;;;9.90;99.90;;;;;;5078899;28;20106;-57
2023/06/07 02:46:06;;;;;;;14.27;7.07;;;9.90;99.90;;;;;;5079743;28;20044;-57
2023/06/07 02:48:32;;;;;;;15.60;7.20;;;9.90;99.90;;;;;;5064864;28;20041;-56
2023/06/07 02:50:57;;;;;;;12.25;6.72;;;9.90;99.90;;;;;;5061627;28;20113;-56
2023/06/07 02:53:24;;;;;;;12.52;6.50;;;9.90;99.90;;;;;;5070711;28;20029;-55
2023/06/07 02:55:50;;;;;;;14.98;6.82;;;9.90;99.90;;;;;;5069429;28;20036;-54
2023/06/07 02:58:16;;;;;;;17.20;7.22;;;9.90;99.90;;;;;;5067319;28;20039;-55
2023/06/07 03:00:44;;;;;;;15.02;7.30;;;9.90;99.90;;;;;;5061579;28;20501;-56
2023/06/07 03:03:10;;;;;;;16.65;7.38;;;10.00;99.90;;;;;;5069266;28;20073;-55
2023/06/07 03:05:36;;;;;;;17.75;8.05;;;9.90;99.90;;;;;;5056988;28;20053;-56
2023/06/07 03:08:02;;;;;;;12.88;7.43;;;9.90;99.90;;;;;;5067970;28;20053;-56
2023/06/07 03:10:28;;;;;;;15.68;7.68;;;9.90;99.90;;;;;;5073032;28;20091;-55
2023/06/07 03:12:53;;;;;;;12.82;8.32;;;9.90;99.90;;;;;;5078974;28;20044;-55
2023/06/07 03:15:19;;;;;;;18.38;7.63;;;9.90;99.90;;;;;;5077305;28;20150;-55
2023/06/07 03:17:45;;;;;;;15.55;7.88;;;9.90;99.90;;;;;;5058900;28;20037;-56
2023/06/07 03:20:11;;;;;;;19.90;7.65;;;9.90;99.90;;;;;;5073819;28;20052;-55
2023/06/07 03:22:37;;;;;;;16.23;8.20;;;9.90;99.90;;;;;;5063325;28;20053;-56
2023/06/07 03:25:03;;;;;;;13.18;7.35;;;9.90;99.90;;;;;;5058662;28;20041;-56
2023/06/07 03:27:32;;;;;;;16.67;8.32;;;9.90;99.90;;;;;;5060389;28;20087;-56
2023/06/07 03:29:59;;;;;;;13.93;8.52;;;9.90;99.90;;;;;;5061929;28;20041;-55
2023/06/07 03:32:25;;;;;;;14.20;7.60;;;9.90;99.90;;;;;;5058719;28;20041;-56
2023/06/07 03:34:51;;;;;;;15.70;8.40;;;9.90;99.90;;;;;;5072578;28;20048;-56
2023/06/07 03:37:17;;;;;;;15.10;7.20;;;9.90;99.90;;;;;;5068460;28;20762;-56
2023/06/07 03:39:42;;;;;;;17.35;7.07;;;9.90;99.90;;;;;;5060165;28;20041;-56
2023/06/07 03:42:08;;;;;;;13.13;7.55;;;9.90;99.90;;;;;;5064262;28;20076;-56
2023/06/07 03:44:34;;;;;;;17.58;7.10;;;10.00;99.90;;;;;;5074285;28;20044;-55
2023/06/07 03:47:00;;;;;;;18.80;7.68;;;10.00;99.90;;;;;;5077256;28;20551;-56
2023/06/07 03:49:25;;;;;;;15.13;7.38;;;10.00;99.90;;;;;;5078148;28;20033;-56
2023/06/07 03:51:51;;;;;;;12.60;7.60;;;10.00;99.90;;;;;;5077127;28;20510;-56
2023/06/07 03:54:17;;;;;;;15.05;7.25;;;10.00;99.90;;;;;;5074873;28;20041;-55
2023/06/07 03:56:43;;;;;;;21.02;7.90;;;10.00;99.90;;;;;;5064831;28;20033;-56
2023/06/07 03:59:08;;;;;;;14.55;7.65;;;10.00;99.90;;;;;;5057302;28;20421;-55
2023/06/07 04:01:34;;;;;;;14.27;6.60;;;10.00;99.90;;;;;;5054278;28;20423;-56
2023/06/07 04:04:00;;;;;;;14.55;7.45;;;10.00;99.90;;;;;;5058974;28;20048;-56
2023/06/07 04:06:26;;;;;;;13.90;6.97;;;10.00;99.90;;;;;;5061307;28;20083;-56
2023/06/07 04:08:52;;;;;;;14.77;6.97;;;10.10;99.90;;;;;;5071315;28;20029;-56
2023/06/07 04:11:19;;;;;;;17.75;7.65;;;10.10;99.90;;;;;;5063018;28;20041;-56
2023/06/07 04:13:44;;;;;;;13.52;6.90;;;10.10;99.90;;;;;;5063368;28;20508;-55
2023/06/07 04:16:11;;;;;;;13.15;6.63;;;10.10;99.90;;;;;;5082628;28;20094;-56
2023/06/07 04:18:36;;;;;;;11.95;6.28;;;10.20;99.90;;;;;;5081584;28;20045;-56
2023/06/07 04:21:03;;;;;;;15.80;6.13;;;10.20;99.90;;;;;;5082150;28;20041;-56
2023/06/07 04:23:28;;;;;;;15.68;6.82;;;10.20;99.90;;;;;;5080501;28;20051;-56
2023/06/07 04:25:55;;;;;;;11.68;6.32;;;10.20;99.90;;;;;;5080927;28;20036;-55
2023/06/07 04:28:24;;;;;;;12.30;5.70;;;10.20;99.90;;;;;;5072377;28;20041;-55
2023/06/07 04:30:53;;;;;;;18.05;6.57;;;10.30;99.90;;;;;;5065932;28;20136;-55
2023/06/07 04:33:20;;;;;;;14.55;6.55;;;10.30;99.90;;;;;;5071553;28;20049;-55
2023/06/07 04:35:46;;;;;;;17.67;7.28;;;10.30;99.90;;;;;;5072747;28;20043;-57
2023/06/07 04:38:15;;;;;;;14.93;6.47;;;10.40;99.90;;;;;;5064713;28;20233;-56
2023/06/07 04:40:42;;;;;;;14.52;5.72;;;9.80;99.90;;;;;;5061020;28;20078;-56
2023/06/07 04:43:11;;;;;;;13.00;6.10;;;10.50;99.90;;;;;;5066042;28;20045;-56
2023/06/07 04:45:40;;;;;;;12.35;5.47;;;10.60;99.90;;;;;;5070906;28;20131;-56
2023/06/07 04:48:11;;;;;;;14.95;5.32;;;10.60;99.90;;;;;;5067495;28;20052;-56
2023/06/07 04:50:41;;;;;;;13.20;5.65;;;10.70;99.90;;;;;;5080021;28;20056;-58
2023/06/07 04:53:10;;;;;;;13.32;5.68;;;10.70;99.90;;;;;;5074253;28;20044;-56
2023/06/07 04:55:37;;;;;;;12.88;5.18;;;10.80;99.90;;;;;;5069017;28;20092;-55
2023/06/07 04:58:04;;;;;;;13.48;5.00;;;10.90;99.90;;;;;;5078220;28;20917;-55
2023/06/07 05:00:33;;;;;;;11.68;4.47;;;10.90;99.90;;;;;;5056821;28;20043;-55
2023/06/07 05:03:06;;;;;;;11.18;4.05;;;11.00;99.90;;;;;;5061603;28;20053;-55
2023/06/07 05:05:35;;;;;;;13.90;5.25;;;11.00;99.90;;;;;;5063793;28;20049;-55
2023/06/07 05:08:05;;;;;;;11.23;4.82;;;11.10;99.90;;;;;;5058887;28;20561;-56
2023/06/07 05:10:31;;;;;;;17.98;4.88;;;11.20;99.90;;;;;;5066550;28;20051;-56
2023/06/07 05:12:56;;;;;;;13.02;4.40;;;11.30;99.90;;;;;;5080228;28;20040;-55
2023/06/07 05:15:23;;;;;;;14.20;4.82;;;11.30;99.90;;;;;;5081218;28;20561;-56
2023/06/07 05:17:53;;;;;;;11.00;4.32;;;11.30;99.90;;;;;;5081065;28;20048;-56
2023/06/07 05:20:24;;;;;;;11.70;4.28;;;11.30;99.90;;;;;;5078949;28;20244;-56
2023/06/07 05:22:50;;;;;;;11.68;3.72;;;11.40;99.90;;;;;;5080648;28;20044;-55
2023/06/07 05:25:17;;;;;;;12.48;3.78;;;11.50;99.90;;;;;;5080208;28;20048;-56
2023/06/07 05:27:42;;;;;;;14.95;4.47;;;11.50;99.90;;;;;;5080748;28;20439;-55
2023/06/07 05:30:09;;;;;;;14.27;4.15;;;11.50;99.90;;;;;;5078809;28;20041;-56
2023/06/07 05:32:35;;;;;;;14.27;4.22;;;11.60;99.90;;;;;;5078999;28;20047;-55
2023/06/07 05:35:02;;;;;;;13.10;4.28;;;11.70;99.90;;;;;;5078583;28;20049;-56
2023/06/07 05:37:29;;;;;;;13.00;3.70;;;11.70;99.90;;;;;;5081178;28;20413;-55
2023/06/07 05:39:55;;;;;;;10.77;4.20;;;11.80;99.90;;;;;;5080108;28;20052;-56
2023/06/07 05:42:21;;;;;;;12.60;4.70;;;11.90;99.90;;;;;;5080894;28;20036;-56
2023/06/07 05:44:48;;;;;;;15.32;4.55;;;11.90;99.90;;;;;;5074242;28;20056;-56
2023/06/07 05:47:14;;;;;;;15.35;4.78;;;11.90;99.90;;;;;;5078432;28;20033;-57
2023/06/07 05:49:44;;;;;;;17.85;4.80;;;12.00;99.90;;;;;;5080763;28;20120;-56
2023/06/07 05:52:10;;;;;;;18.48;5.30;;;12.00;99.90;;;;;;5080080;28;20036;-56
2023/06/07 05:54:38;;;;;;;12.38;5.30;;;12.10;99.90;;;;;;5080530;28;20119;-57
2023/06/07 05:57:04;;;;;;;15.40;5.15;;;12.00;99.90;;;;;;5077972;28;20032;-56
2023/06/07 05:59:30;;;;;;;10.88;4.47;;;12.10;99.90;;;;;;5080277;28;20051;-57
2023/06/07 06:01:56;;;;;;;14.55;4.85;;;12.10;99.90;;;;;;5078562;28;20056;-56
2023/06/07 06:04:22;;;;;;;10.85;4.80;;;12.20;99.90;;;;;;5080200;28;20119;-56
2023/06/07 06:06:48;;;;;;;12.07;4.57;;;12.20;99.90;;;;;;5078935;28;20090;-56
2023/06/07 06:09:14;;;;;;;12.40;4.47;;;12.20;99.90;;;;;;5079752;28;20048;-56
2023/06/07 06:11:39;;;;;;;12.20;5.00;;;12.20;99.90;;;;;;5080131;28;20029;-55
2023/06/07 06:14:05;;;;;;;16.75;4.82;;;12.30;99.90;;;;;;5079258;28;20037;-56
2023/06/07 06:16:31;;;;;;;12.68;5.07;;;12.30;99.90;;;;;;5078657;28;20041;-56
2023/06/07 06:18:57;;;;;;;12.60;5.07;;;12.30;99.90;;;;;;5076797;28;20448;-56
2023/06/07 06:21:22;;;;;;;12.00;4.03;;;12.40;99.90;;;;;;5079838;28;20044;-56
2023/06/07 06:23:48;;;;;;;16.92;4.75;;;12.40;99.90;;;;;;5079427;28;20123;-56
2023/06/07 06:26:14;;;;;;;17.25;5.03;;;12.40;99.90;;;;;;5079605;28;20059;-55
2023/06/07 06:28:40;;;;;;;10.75;4.55;;;12.50;99.90;;;;;;5078899;28;20059;-56
2023/06/07 06:31:06;;;;;;;11.38;4.78;;;12.60;99.90;;;;;;5079240;28;20131;-56
2023/06/07 06:33:32;;;;;;;14.25;5.22;;;12.80;99.90;;;;;;5079783;28;20044;-56
2023/06/07 06:35:59;;;;;;;12.68;3.97;;;12.80;99.90;;;;;;5075958;28;20041;-56
2023/06/07 06:38:25;;;;;;;11.98;4.18;;;13.00;99.90;;;;;;5079523;28;20075;-56
2023/06/07 06:40:51;;;;;;;9.65;3.90;;;13.10;99.90;;;;;;5079255;28;20435;-56
2023/06/07 06:43:16;;;;;;;15.35;4.70;;;13.30;99.90;;;;;;5079213;28;20047;-57
2023/06/07 06:45:42;;;;;;;10.95;4.53;;;13.40;99.90;;;;;;5068773;28;20484;-55
2023/06/07 06:48:08;;;;;;;13.80;4.47;;;13.40;99.90;;;;;;5058953;28;20033;-57
2023/06/07 06:50:35;;;;;;;14.35;4.57;;;13.50;99.90;;;;;;5059465;28;20041;-56
2023/06/07 06:53:01;;;;;;;16.80;4.28;;;13.60;99.90;;;;;;5058775;28;20077;-57
2023/06/07 06:55:27;;;;;;;11.90;4.63;;;13.80;99.90;;;;;;5059223;28;20075;-58
2023/06/07 06:57:52;;;;;;;15.68;4.68;;;13.80;99.90;;;;;;5071539;28;20131;-56
2023/06/07 07:00:18;;;;;;;15.80;5.65;;;14.00;99.90;;;;;;5079273;28;20423;-56
2023/06/07 07:02:44;;;;;;;14.57;4.50;;;14.00;99.90;;;;;;5079307;28;20059;-56
2023/06/07 07:05:11;;;;;;;15.82;4.40;;;14.10;99.90;;;;;;5078540;28;20110;-57
2023/06/07 07:07:37;;;;;;;14.95;4.03;;;14.00;99.90;;;;;;5079385;28;20492;-57
2023/06/07 07:10:04;;;;;;;12.73;4.15;;;14.00;99.90;;;;;;5064077;28;20479;-55
2023/06/07 07:12:29;;;;;;;11.95;4.25;;;14.00;99.90;;;;;;5059127;28;20045;-56
2023/06/07 07:14:55;;;;;;;13.70;4.10;;;14.00;99.90;;;;;;5062120;28;20094;-56
2023/06/07 07:17:21;;;;;;;12.30;4.28;;;14.00;99.90;;;;;;5076643;28;20040;-56
2023/06/07 07:19:46;;;;;;;9.50;3.42;;;14.00;99.90;;;;;;5079186;28;20096;-56
2023/06/07 07:22:12;;;;;;;13.90;3.90;;;14.10;99.90;;;;;;5078376;28;20040;-56
2023/06/07 07:24:38;;;;;;;12.15;4.00;;;14.10;99.90;;;;;;5079126;28;20063;-56
2023/06/07 07:27:06;;;;;;;19.15;4.53;;;14.20;99.90;;;;;;5076402;28;20056;-56
2023/06/07 07:29:32;;;;;;;12.65;4.45;;;14.30;99.90;;;;;;5078184;28;20396;-55
2023/06/07 07:31:58;;;;;;;15.23;3.83;;;14.50;99.90;;;;;;5078392;28;20067;-56
2023/06/07 07:34:24;;;;;;;13.85;3.88;;;14.70;99.90;;;;;;5078971;28;20037;-56
2023/06/07 07:36:50;;;;;;;13.15;4.28;;;15.10;99.90;;;;;;5077110;28;20032;-56
2023/06/07 07:39:16;;;;;;;11.68;3.15;;;15.50;99.90;;;;;;5078327;28;20071;-56
2023/06/07 07:41:42;;;;;;;12.23;3.45;;;15.80;99.90;;;;;;5079042;28;20068;-56
2023/06/07 07:44:08;;;;;;;9.95;3.35;;;15.90;99.90;;;;;;5077920;28;20041;-56
2023/06/07 07:46:35;;;;;;;11.30;3.17;;;16.00;99.90;;;;;;5077248;28;20044;-56
2023/06/07 07:49:01;;;;;;;9.77;3.50;;;16.00;99.90;;;;;;5081506;28;20405;-56
2023/06/07 07:51:27;;;;;;;11.15;3.90;;;15.90;99.90;;;;;;5082627;28;20036;-56
2023/06/07 07:53:53;;;;;;;15.30;4.00;;;15.80;99.90;;;;;;5082624;28;20062;-56
2023/06/07 07:56:21;;;;;;;12.43;3.65;;;15.70;99.90;;;;;;5082360;28;20044;-56
2023/06/07 07:58:48;;;;;;;13.20;4.93;;;15.60;99.90;;;;;;5081221;28;20044;-56
2023/06/07 08:01:16;;;;;;;6.38;2.63;;;15.70;99.90;;;;;;5080983;28;20044;-56
2023/06/07 08:03:42;;;;;;;10.38;3.38;;;15.80;99.90;;;;;;5082594;28;20041;-56
2023/06/07 08:06:08;;;;;;;12.45;3.50;;;16.20;99.90;;;;;;5080679;28;20052;-56
2023/06/07 08:08:34;;;;;;;7.90;3.00;;;16.50;99.90;;;;;;5082487;28;20040;-54
2023/06/07 08:11:00;;;;;;;11.63;4.32;;;16.80;99.90;;;;;;5081307;28;20069;-56
2023/06/07 08:13:26;;;;;;;8.40;3.10;;;17.10;99.90;;;;;;5081863;28;20048;-57
2023/06/07 08:15:52;;;;;;;12.27;3.75;;;17.20;99.90;;;;;;5082729;28;20036;-55
2023/06/07 08:18:18;;;;;;;10.98;3.17;;;17.40;99.90;;;;;;5081501;28;20045;-56
2023/06/07 08:20:44;;;;;;;11.30;3.60;;;17.80;99.90;;;;;;5082052;28;20156;-56
2023/06/07 08:23:10;;;;;;;11.93;2.95;;;18.00;99.90;;;;;;5075948;28;20044;-56
2023/06/07 08:25:36;;;;;;;9.88;3.10;;;18.10;99.90;;;;;;5082246;28;20051;-56
2023/06/07 08:28:02;;;;;;;12.13;3.08;;;18.30;99.90;;;;;;5081963;28;20036;-56
2023/06/07 08:30:28;;;;;;;12.23;2.80;;;18.40;99.90;;;;;;5079906;28;20465;-56
2023/06/07 08:32:54;;;;;;;11.18;3.63;;;18.60;99.90;;;;;;5080516;28;20060;-56
2023/06/07 08:35:20;;;;;;;8.88;3.67;;;18.80;99.90;;;;;;5079918;28;20044;-58
2023/06/07 08:37:45;;;;;;;10.10;3.58;;;18.90;99.90;;;;;;5080824;28;20655;-60
2023/06/07 08:40:12;;;;;;;9.38;3.13;;;19.10;99.90;;;;;;5081396;28;20455;-57
2023/06/07 08:42:39;;;;;;;9.77;3.40;;;19.20;99.90;;;;;;5080478;28;20050;-57
2023/06/07 08:45:06;;;;;;;9.55;3.75;;;19.40;99.90;;;;;;5081476;28;20059;-56
2023/06/07 08:47:35;;;;;;;8.45;3.13;;;19.60;99.90;;;;;;5081760;28;20033;-56
2023/06/07 08:50:02;;;;;;;9.05;3.40;;;19.70;99.90;;;;;;5081743;28;20044;-56
2023/06/07 08:52:30;;;;;;;7.57;3.38;;;19.80;99.90;;;;;;5071287;28;20037;-56
2023/06/07 08:55:03;;;;;;;6.68;2.67;;;19.70;99.90;;;;;;5061462;28;20033;-57
2023/06/07 08:57:30;;;;;;;9.27;3.38;;;19.80;99.90;;;;;;5061153;28;20071;-56
2023/06/07 08:59:57;;;;;;;9.30;3.72;;;19.90;99.90;;;;;;5060114;28;20041;-56
2023/06/07 09:02:25;;;;;;;7.43;3.40;;;20.00;99.90;;;;;;5060993;28;20033;-56
2023/06/07 09:04:51;;;;;;;8.82;3.33;;;20.10;99.90;;;;;;5060885;28;20060;-56
2023/06/07 09:07:17;;;;;;;10.10;3.60;;;20.10;99.90;;;;;;5061649;28;20048;-56
2023/06/07 09:09:43;;;;;;;8.40;3.60;;;20.00;99.90;;;;;;5060879;28;20105;-56
2023/06/07 09:12:12;;;;;;;13.23;3.80;;;20.20;99.90;;;;;;5061371;28;20075;-57
2023/06/07 09:14:38;;;;;;;10.70;3.65;;;20.30;99.90;;;;;;5068098;28;20127;-56
2023/06/07 09:17:03;;;;;;;8.15;3.58;;;20.40;99.90;;;;;;5081393;28;20075;-56
2023/06/07 09:19:37;;;;;;;7.10;3.53;;;20.60;99.90;;;;;;5081097;28;20033;-56
2023/06/07 09:22:04;;;;;;;10.82;3.70;;;20.70;99.90;;;;;;5075569;28;20044;-56
2023/06/07 09:24:31;;;;;;;9.07;3.30;;;20.80;99.90;;;;;;5081081;28;20040;-56
2023/06/07 09:26:57;;;;;;;11.85;3.67;;;20.90;99.90;;;;;;5080386;28;20060;-56
2023/06/07 09:29:24;;;;;;;12.88;3.92;;;20.80;99.90;;;;;;5080889;28;20040;-56
2023/06/07 09:31:49;;;;;;;10.00;3.30;;;20.80;99.90;;;;;;5078567;28;20036;-57
2023/06/07 09:34:26;;;;;;;9.55;3.72;;;20.90;99.90;;;;;;5080857;28;20115;-57
2023/06/07 09:36:53;;;;;;;8.65;3.50;;;20.90;99.90;;;;;;5081040;28;20048;-56
2023/06/07 09:39:25;;;;;;;7.60;3.10;;;20.90;99.90;;;;;;5080438;28;20044;-56
2023/06/07 09:41:55;;;;;;;8.70;3.10;;;20.90;99.90;;;;;;5079789;28;20049;-56
2023/06/07 09:44:26;;;;;;;8.45;3.22;;;20.80;99.90;;;;;;5079558;28;20401;-56
2023/06/07 09:46:53;;;;;;;7.78;3.03;;;20.80;99.90;;;;;;5079513;28;20036;-57
2023/06/07 09:49:34;;;;;;;9.27;3.45;;;20.90;99.90;;;;;;5080265;28;20084;-56
2023/06/07 09:52:02;;;;;;;7.57;3.35;;;21.00;99.90;;;;;;5078107;28;20052;-56
2023/06/07 09:54:38;;;;;;;7.28;3.33;;;21.00;99.90;;;;;;5080647;28;20107;-56
2023/06/07 09:57:09;;;;;;;11.60;3.47;;;20.90;99.90;;;;;;5079960;28;20044;-57
2023/06/07 09:59:38;;;;;;;12.27;3.95;;;20.90;99.90;;;;;;5076867;28;20025;-56
2023/06/07 10:02:24;;;;;;;15.25;3.55;;;20.90;99.90;;;;;;5060035;28;20104;-57
2023/06/07 10:04:50;;;;;;;9.95;3.70;;;20.90;98.80;;;;;;5059735;28;20057;-56
2023/06/07 10:07:20;;;;;;;9.95;3.67;;;20.80;99.90;;;;;;5060241;28;20049;-55
2023/06/07 10:09:49;;;;;;;8.32;3.75;;;20.80;99.90;;;;;;5060291;28;20045;-56
2023/06/07 10:12:17;;;;;;;8.20;3.22;;;20.80;99.90;;;;;;5080298;28;20041;-57
2023/06/07 10:14:45;;;;;;;10.32;3.83;;;20.80;99.90;;;;;;5079652;28;20044;-56
2023/06/07 10:17:14;;;;;;;9.43;3.80;;;20.70;99.90;;;;;;5080235;28;20487;-56
2023/06/07 10:19:49;;;;;;;9.15;3.40;;;20.60;99.60;;;;;;5078109;28;20064;-56
2023/06/07 10:22:19;;;;;;;14.35;4.40;;;20.60;99.50;;;;;;5068209;28;20171;-56
2023/06/07 10:25:23;;;;;;;9.23;3.13;;;20.50;99.50;;;;;;5059386;28;20045;-56
2023/06/07 10:27:57;;;;;;;12.75;3.97;;;20.50;99.50;;;;;;5057847;28;20406;-55
2023/06/07 10:30:25;;;;;;;7.97;3.30;;;20.50;99.60;;;;;;5059635;28;20423;-56
2023/06/07 10:32:52;;;;;;;10.45;3.30;;;20.40;99.40;;;;;;5060168;28;20112;-56
2023/06/07 10:35:19;;;;;;;9.32;4.15;;;20.50;99.60;;;;;;5058848;28;20033;-56
2023/06/07 10:37:53;;;;;;;9.25;3.78;;;20.60;99.60;;;;;;5079432;28;20468;-56
2023/06/07 10:40:21;;;;;;;8.73;3.60;;;20.60;99.50;;;;;;5078071;28;20049;-56
2023/06/07 10:42:47;;;;;;;8.43;3.85;;;20.60;99.60;;;;;;5079288;28;20052;-57
2023/06/07 10:45:18;;;;;;;9.35;3.70;;;20.60;99.40;;;;;;5079715;28;20041;-56
2023/06/07 10:47:44;;;;;;;10.93;3.90;;;20.70;99.60;;;;;;5077538;28;20060;-56
2023/06/07 10:50:30;;;;;;;7.57;3.75;;;20.70;99.60;;;;;;5079603;28;20076;-56
2023/06/07 10:52:59;;;;;;;7.38;3.80;;;20.80;99.10;;;;;;5077803;28;20126;-56
2023/06/07 10:55:27;;;;;;;18.52;4.68;;;20.90;99.30;;;;;;5079189;28;20041;-56
2023/06/07 10:57:53;;;;;;;13.40;4.63;;;20.90;99.20;;;;;;5079089;28;20037;-57
2023/06/07 11:00:30;;;;;;;7.65;3.78;;;20.90;99.20;;;;;;5079128;28;20151;-56
2023/06/07 11:03:04;;;;;;;5.97;3.05;;;20.90;99.20;;;;;;5079601;28;20091;-56
2023/06/07 11:05:55;;;;;;;9.68;3.50;;;20.90;99.80;;;;;;5077924;28;20061;-60
2023/06/07 11:08:28;;;;;;;10.10;4.30;;;21.10;99.80;;;;;;5077738;28;20068;-55
2023/06/07 11:11:00;;;;;;;9.98;4.05;;;21.20;99.70;;;;;;5079330;28;20704;-56
2023/06/07 11:13:44;;;;;;;9.13;3.63;;;21.30;99.40;;;;;;5077543;28;20043;-57
2023/06/07 11:16:28;;;;;;;10.05;3.47;;;21.40;98.50;;;;;;5079336;28;20040;-56
2023/06/07 11:19:05;;;;;;;8.60;3.75;;;21.50;99.00;;;;;;5078912;28;20251;-57
2023/06/07 11:21:53;;;;;;;7.68;3.78;;;21.60;99.30;;;;;;5077049;28;20515;-56
2023/06/07 11:24:20;;;;;;;8.88;3.38;;;21.80;98.50;;;;;;5078839;28;20045;-56
2023/06/07 11:26:47;;;;;;;8.27;3.30;;;22.00;99.40;;;;;;5077290;28;20040;-57
2023/06/07 11:29:20;;;;;;;9.43;3.80;;;22.10;98.80;;;;;;5078904;28;20044;-57
2023/06/07 11:32:06;;;;;;;9.63;3.92;;;22.30;98.30;;;;;;5078747;28;20059;-58
2023/06/07 11:34:33;;;;;;;11.50;3.93;;;22.30;97.40;;;;;;5078727;28;20536;-56
2023/06/07 11:37:14;;;;;;;7.07;3.63;;;22.20;97.20;;;;;;5079166;28;20407;-57
2023/06/07 11:39:40;;;;;;;6.90;3.63;;;22.30;97.30;;;;;;5078331;28;20063;-56
2023/06/07 11:42:06;;;;;;;8.73;4.00;;;22.40;97.50;;;;;;5077637;28;20079;-57
2023/06/07 11:44:34;;;;;;;11.30;3.75;;;22.50;97.40;;;;;;5076695;28;20040;-57
2023/06/07 11:47:05;;;;;;;8.60;3.58;;;22.60;98.10;;;;;;5077357;28;20078;-56
2023/06/07 11:49:32;;;;;;;14.82;4.93;;;22.80;98.30;;;;;;5077388;28;20036;-57
2023/06/07 11:51:58;;;;;;;8.80;3.88;;;23.00;97.40;;;;;;5056925;28;20049;-57
2023/06/07 11:54:27;;;;;;;10.35;3.88;;;23.10;97.50;;;;;;5058950;28;20080;-56
2023/06/07 11:56:53;;;;;;;10.45;4.10;;;23.10;96.10;;;;;;5057999;28;20037;-56
2023/06/07 11:59:23;;;;;;;9.25;3.85;;;23.10;96.20;;;;;;5058553;28;20072;-56
2023/06/07 12:01:55;;;;;;;9.75;3.80;;;23.10;96.40;;;;;;5060169;28;20470;-57
2023/06/07 12:04:22;;;;;;;9.63;3.80;;;23.20;96.30;;;;;;5076942;28;20041;-56
2023/06/07 12:06:49;;;;;;;9.27;3.88;;;23.30;96.00;;;;;;5078731;28;20071;-57
2023/06/07 12:09:18;;;;;;;9.38;4.00;;;23.40;96.10;;;;;;5078239;28;20044;-59
2023/06/07 12:11:45;;;;;;;11.75;3.53;;;23.50;96.20;;;;;;5078618;28;20040;-56
2023/06/07 12:14:11;;;;;;;8.30;3.17;;;23.50;95.70;;;;;;5076262;28;20032;-56
2023/06/07 12:16:38;;;;;;;9.38;4.28;;;23.60;95.50;;;;;;5078596;28;20036;-56
2023/06/07 12:19:05;;;;;;;8.35;3.50;;;23.50;94.70;;;;;;5077268;28;20067;-55
2023/06/07 12:21:31;;;;;;;10.05;3.80;;;23.50;94.60;;;;;;5078136;28;20483;-56
2023/06/07 12:24:00;;;;;;;12.88;4.00;;;23.50;94.60;;;;;;5075354;28;20080;-56
2023/06/07 12:26:26;;;;;;;9.38;3.55;;;23.60;94.00;;;;;;5078162;28;20451;-55
2023/06/07 12:28:52;;;;;;;8.00;3.42;;;23.60;94.00;;;;;;5078190;28;20338;-56
2023/06/07 12:31:25;;;;;;;8.30;3.70;;;23.70;94.20;;;;;;5077623;28;20041;-56
2023/06/07 12:34:01;;;;;;;6.47;3.13;;;23.80;93.40;;;;;;5078911;28;20040;-56
2023/06/07 12:36:33;;;;;;;6.45;3.08;;;23.80;93.90;;;;;;5081890;28;20036;-56
2023/06/07 12:39:09;;;;;;;8.05;3.20;;;24.00;93.90;;;;;;5081826;28;20041;-56
2023/06/07 12:41:36;;;;;;;9.35;3.55;;;24.30;94.10;;;;;;5082017;28;20048;-56
2023/06/07 12:44:04;;;;;;;7.35;3.55;;;24.60;93.60;;;;;;5077464;28;20056;-56